sensor_id;sensor_type;location;lat;lon;timestamp;pressure;altitude;pressure_sealevel;temperature
33267;BMP180;19638;49.080;11.896;2023-03-13T00:02:45;95883.00;;;8.90
33267;BMP180;19638;49.080;11.896;2023-03-13T00:06:48;95876.00;;;8.80
33267;BMP180;19638;49.080;11.896;2023-03-13T00:10:51;95877.00;;;8.80
33267;BMP180;19638;49.080;11.896;2023-03-13T00:14:56;95872.00;;;8.80
33267;BMP180;19638;49.080;11.896;2023-03-13T00:18:59;95868.00;;;8.80
33267;BMP180;19638;49.080;11.896;2023-03-13T00:23:02;95861.00;;;8.80
33267;BMP180;19638;49.080;11.896;2023-03-13T00:27:08;95862.00;;;8.80
33267;BMP180;19638;49.080;11.896;2023-03-13T00:31:15;95854.00;;;8.90
33267;BMP180;19638;49.080;11.896;2023-03-13T00:35:18;95846.00;;;8.90
33267;BMP180;19638;49.080;11.896;2023-03-13T00:39:22;95839.00;;;8.80
33267;BMP180;19638;49.080;11.896;2023-03-13T00:43:27;95838.00;;;8.70
33267;BMP180;19638;49.080;11.896;2023-03-13T00:47:32;95840.00;;;8.70
33267;BMP180;19638;49.080;11.896;2023-03-13T00:51:37;95826.00;;;8.60
33267;BMP180;19638;49.080;11.896;2023-03-13T00:55:50;95829.00;;;8.50
33267;BMP180;19638;49.080;11.896;2023-03-13T00:59:54;95816.00;;;8.60
33267;BMP180;19638;49.080;11.896;2023-03-13T01:04:03;95811.00;;;8.50
33267;BMP180;19638;49.080;11.896;2023-03-13T01:08:11;95806.00;;;8.50
33267;BMP180;19638;49.080;11.896;2023-03-13T01:12:14;95797.00;;;8.50
33267;BMP180;19638;49.080;11.896;2023-03-13T01:16:23;95795.00;;;8.40
33267;BMP180;19638;49.080;11.896;2023-03-13T01:20:32;95803.00;;;8.40
33267;BMP180;19638;49.080;11.896;2023-03-13T01:24:35;95799.00;;;8.40
33267;BMP180;19638;49.080;11.896;2023-03-13T01:28:42;95804.00;;;8.40
33267;BMP180;19638;49.080;11.896;2023-03-13T01:32:46;95810.00;;;8.40
33267;BMP180;19638;49.080;11.896;2023-03-13T01:36:54;95796.00;;;8.50
33267;BMP180;19638;49.080;11.896;2023-03-13T01:41:02;95803.00;;;8.50
33267;BMP180;19638;49.080;11.896;2023-03-13T01:49:26;95793.00;;;8.50
33267;BMP180;19638;49.080;11.896;2023-03-13T01:53:38;95781.00;;;8.50
33267;BMP180;19638;49.080;11.896;2023-03-13T01:57:45;95780.00;;;8.40
33267;BMP180;19638;49.080;11.896;2023-03-13T02:01:52;95789.00;;;8.40
33267;BMP180;19638;49.080;11.896;2023-03-13T02:06:00;95791.00;;;8.40
33267;BMP180;19638;49.080;11.896;2023-03-13T02:10:18;95783.00;;;8.40
33267;BMP180;19638;49.080;11.896;2023-03-13T02:14:26;95774.00;;;8.30
33267;BMP180;19638;49.080;11.896;2023-03-13T02:18:29;95766.00;;;8.30
33267;BMP180;19638;49.080;11.896;2023-03-13T02:22:39;95770.00;;;8.30
33267;BMP180;19638;49.080;11.896;2023-03-13T02:26:51;95759.00;;;8.20
33267;BMP180;19638;49.080;11.896;2023-03-13T02:30:55;95767.00;;;8.10
33267;BMP180;19638;49.080;11.896;2023-03-13T02:35:03;95768.00;;;8.00
33267;BMP180;19638;49.080;11.896;2023-03-13T02:39:08;95769.00;;;8.00
33267;BMP180;19638;49.080;11.896;2023-03-13T02:43:28;95763.00;;;7.90
33267;BMP180;19638;49.080;11.896;2023-03-13T02:47:32;95763.00;;;8.00
33267;BMP180;19638;49.080;11.896;2023-03-13T02:51:41;95758.00;;;8.00
33267;BMP180;19638;49.080;11.896;2023-03-13T02:55:49;95753.00;;;8.00
33267;BMP180;19638;49.080;11.896;2023-03-13T02:59:56;95762.00;;;8.10
33267;BMP180;19638;49.080;11.896;2023-03-13T03:03:59;95768.00;;;8.20
33267;BMP180;19638;49.080;11.896;2023-03-13T03:08:05;95762.00;;;8.20
33267;BMP180;19638;49.080;11.896;2023-03-13T03:12:10;95758.00;;;8.30
33267;BMP180;19638;49.080;11.896;2023-03-13T03:16:17;95751.00;;;8.40
33267;BMP180;19638;49.080;11.896;2023-03-13T03:20:21;95743.00;;;8.40
33267;BMP180;19638;49.080;11.896;2023-03-13T03:24:25;95738.00;;;8.40
33267;BMP180;19638;49.080;11.896;2023-03-13T03:28:28;95741.00;;;8.50
33267;BMP180;19638;49.080;11.896;2023-03-13T03:32:33;95737.00;;;8.50
33267;BMP180;19638;49.080;11.896;2023-03-13T03:36:36;95741.00;;;8.50
33267;BMP180;19638;49.080;11.896;2023-03-13T03:40:43;95737.00;;;8.60
33267;BMP180;19638;49.080;11.896;2023-03-13T03:44:48;95717.00;;;8.60
33267;BMP180;19638;49.080;11.896;2023-03-13T03:48:55;95724.00;;;8.50
33267;BMP180;19638;49.080;11.896;2023-03-13T03:53:05;95720.00;;;8.50
33267;BMP180;19638;49.080;11.896;2023-03-13T03:57:10;95718.00;;;8.50
33267;BMP180;19638;49.080;11.896;2023-03-13T04:01:13;95703.00;;;8.50
33267;BMP180;19638;49.080;11.896;2023-03-13T04:05:18;95693.00;;;8.50
33267;BMP180;19638;49.080;11.896;2023-03-13T04:09:21;95702.00;;;8.50
33267;BMP180;19638;49.080;11.896;2023-03-13T04:13:24;95690.00;;;8.50
33267;BMP180;19638;49.080;11.896;2023-03-13T04:17:28;95684.00;;;8.50
33267;BMP180;19638;49.080;11.896;2023-03-13T04:21:35;95685.00;;;8.50
33267;BMP180;19638;49.080;11.896;2023-03-13T04:25:40;95675.00;;;8.40
33267;BMP180;19638;49.080;11.896;2023-03-13T04:29:52;95673.00;;;8.30
33267;BMP180;19638;49.080;11.896;2023-03-13T04:33:55;95662.00;;;8.10
33267;BMP180;19638;49.080;11.896;2023-03-13T04:38:02;95658.00;;;8.00
33267;BMP180;19638;49.080;11.896;2023-03-13T04:42:05;95658.00;;;7.90
33267;BMP180;19638;49.080;11.896;2023-03-13T04:46:08;95642.00;;;7.90
33267;BMP180;19638;49.080;11.896;2023-03-13T04:50:13;95653.00;;;7.80
33267;BMP180;19638;49.080;11.896;2023-03-13T04:54:27;95650.00;;;7.80
33267;BMP180;19638;49.080;11.896;2023-03-13T04:58:30;95653.00;;;7.80
33267;BMP180;19638;49.080;11.896;2023-03-13T05:02:34;95644.00;;;7.90
33267;BMP180;19638;49.080;11.896;2023-03-13T05:06:42;95635.00;;;7.90
33267;BMP180;19638;49.080;11.896;2023-03-13T05:10:48;95630.00;;;8.00
33267;BMP180;19638;49.080;11.896;2023-03-13T05:14:52;95635.00;;;7.90
33267;BMP180;19638;49.080;11.896;2023-03-13T05:18:55;95620.00;;;7.90
33267;BMP180;19638;49.080;11.896;2023-03-13T05:22:58;95607.00;;;7.90
33267;BMP180;19638;49.080;11.896;2023-03-13T05:27:08;95606.00;;;7.80
33267;BMP180;19638;49.080;11.896;2023-03-13T05:31:14;95613.00;;;7.80
33267;BMP180;19638;49.080;11.896;2023-03-13T05:35:17;95592.00;;;7.70
33267;BMP180;19638;49.080;11.896;2023-03-13T05:39:20;95594.00;;;7.60
33267;BMP180;19638;49.080;11.896;2023-03-13T05:43:30;95605.00;;;7.60
33267;BMP180;19638;49.080;11.896;2023-03-13T05:47:37;95600.00;;;7.60
33267;BMP180;19638;49.080;11.896;2023-03-13T05:51:45;95597.00;;;7.60
33267;BMP180;19638;49.080;11.896;2023-03-13T05:55:48;95595.00;;;7.60
33267;BMP180;19638;49.080;11.896;2023-03-13T05:59:56;95598.00;;;7.70
33267;BMP180;19638;49.080;11.896;2023-03-13T06:04:00;95600.00;;;7.80
33267;BMP180;19638;49.080;11.896;2023-03-13T06:08:06;95601.00;;;7.80
33267;BMP180;19638;49.080;11.896;2023-03-13T06:12:10;95600.00;;;7.90
33267;BMP180;19638;49.080;11.896;2023-03-13T06:16:17;95587.00;;;8.00
33267;BMP180;19638;49.080;11.896;2023-03-13T06:20:20;95568.00;;;8.00
33267;BMP180;19638;49.080;11.896;2023-03-13T06:24:24;95579.00;;;8.00
33267;BMP180;19638;49.080;11.896;2023-03-13T06:28:27;95595.00;;;8.00
33267;BMP180;19638;49.080;11.896;2023-03-13T06:32:32;95577.00;;;8.00
33267;BMP180;19638;49.080;11.896;2023-03-13T06:36:35;95557.00;;;7.90
33267;BMP180;19638;49.080;11.896;2023-03-13T06:40:38;95549.00;;;7.90
33267;BMP180;19638;49.080;11.896;2023-03-13T06:44:44;95562.00;;;7.90
33267;BMP180;19638;49.080;11.896;2023-03-13T06:48:48;95557.00;;;7.90
33267;BMP180;19638;49.080;11.896;2023-03-13T06:52:53;95556.00;;;7.80
33267;BMP180;19638;49.080;11.896;2023-03-13T06:56:58;95571.00;;;7.90
33267;BMP180;19638;49.080;11.896;2023-03-13T07:01:05;95554.00;;;8.00
33267;BMP180;19638;49.080;11.896;2023-03-13T07:05:10;95559.00;;;8.00
33267;BMP180;19638;49.080;11.896;2023-03-13T07:09:15;95567.00;;;8.10
33267;BMP180;19638;49.080;11.896;2023-03-13T07:13:23;95566.00;;;8.10
33267;BMP180;19638;49.080;11.896;2023-03-13T07:17:29;95565.00;;;8.10
33267;BMP180;19638;49.080;11.896;2023-03-13T07:21:33;95562.00;;;8.10
33267;BMP180;19638;49.080;11.896;2023-03-13T07:25:39;95551.00;;;8.10
33267;BMP180;19638;49.080;11.896;2023-03-13T07:29:43;95555.00;;;8.00
33267;BMP180;19638;49.080;11.896;2023-03-13T07:33:48;95557.00;;;8.00
33267;BMP180;19638;49.080;11.896;2023-03-13T07:37:55;95548.00;;;8.00
33267;BMP180;19638;49.080;11.896;2023-03-13T07:42:01;95544.00;;;8.10
33267;BMP180;19638;49.080;11.896;2023-03-13T07:46:06;95545.00;;;8.10
33267;BMP180;19638;49.080;11.896;2023-03-13T07:50:13;95553.00;;;8.20
33267;BMP180;19638;49.080;11.896;2023-03-13T07:54:17;95536.00;;;8.30
33267;BMP180;19638;49.080;11.896;2023-03-13T07:58:24;95542.00;;;8.50
33267;BMP180;19638;49.080;11.896;2023-03-13T08:02:29;95543.00;;;8.60
33267;BMP180;19638;49.080;11.896;2023-03-13T08:06:33;95548.00;;;8.80
33267;BMP180;19638;49.080;11.896;2023-03-13T08:10:39;95542.00;;;9.00
33267;BMP180;19638;49.080;11.896;2023-03-13T08:14:42;95549.00;;;9.20
33267;BMP180;19638;49.080;11.896;2023-03-13T08:18:51;95546.00;;;9.20
33267;BMP180;19638;49.080;11.896;2023-03-13T08:22:55;95541.00;;;9.30
33267;BMP180;19638;49.080;11.896;2023-03-13T08:27:01;95545.00;;;9.50
33267;BMP180;19638;49.080;11.896;2023-03-13T08:31:08;95537.00;;;9.80
33267;BMP180;19638;49.080;11.896;2023-03-13T08:35:12;95532.00;;;10.20
33267;BMP180;19638;49.080;11.896;2023-03-13T08:39:17;95522.00;;;10.50
33267;BMP180;19638;49.080;11.896;2023-03-13T08:43:32;95515.00;;;11.00
33267;BMP180;19638;49.080;11.896;2023-03-13T08:47:35;95513.00;;;11.40
33267;BMP180;19638;49.080;11.896;2023-03-13T08:51:39;95510.00;;;11.70
33267;BMP180;19638;49.080;11.896;2023-03-13T08:55:54;95520.00;;;12.00
33267;BMP180;19638;49.080;11.896;2023-03-13T08:59:59;95509.00;;;12.30
33267;BMP180;19638;49.080;11.896;2023-03-13T09:04:04;95504.00;;;12.50
33267;BMP180;19638;49.080;11.896;2023-03-13T09:08:11;95506.00;;;12.60
33267;BMP180;19638;49.080;11.896;2023-03-13T09:12:15;95491.00;;;12.60
33267;BMP180;19638;49.080;11.896;2023-03-13T09:16:34;95489.00;;;12.40
33267;BMP180;19638;49.080;11.896;2023-03-13T09:20:37;95481.00;;;12.20
33267;BMP180;19638;49.080;11.896;2023-03-13T09:24:40;95486.00;;;12.10
33267;BMP180;19638;49.080;11.896;2023-03-13T09:28:46;95476.00;;;12.00
33267;BMP180;19638;49.080;11.896;2023-03-13T09:32:52;95477.00;;;12.00
33267;BMP180;19638;49.080;11.896;2023-03-13T09:36:56;95475.00;;;12.10
33267;BMP180;19638;49.080;11.896;2023-03-13T09:41:20;95463.00;;;12.30
33267;BMP180;19638;49.080;11.896;2023-03-13T09:45:29;95463.00;;;12.40
33267;BMP180;19638;49.080;11.896;2023-03-13T09:49:39;95463.00;;;12.50
33267;BMP180;19638;49.080;11.896;2023-03-13T09:53:45;95461.00;;;12.50
33267;BMP180;19638;49.080;11.896;2023-03-13T09:57:55;95449.00;;;12.50
33267;BMP180;19638;49.080;11.896;2023-03-13T10:01:59;95449.00;;;12.60
33267;BMP180;19638;49.080;11.896;2023-03-13T10:06:12;95464.00;;;12.90
33267;BMP180;19638;49.080;11.896;2023-03-13T10:10:53;95454.00;;;13.10
33267;BMP180;19638;49.080;11.896;2023-03-13T10:15:11;95458.00;;;13.20
33267;BMP180;19638;49.080;11.896;2023-03-13T10:19:24;95460.00;;;13.40
33267;BMP180;19638;49.080;11.896;2023-03-13T10:23:36;95463.00;;;13.70
33267;BMP180;19638;49.080;11.896;2023-03-13T10:27:44;95453.00;;;13.90
33267;BMP180;19638;49.080;11.896;2023-03-13T10:31:59;95443.00;;;14.10
33267;BMP180;19638;49.080;11.896;2023-03-13T10:36:07;95446.00;;;14.20
33267;BMP180;19638;49.080;11.896;2023-03-13T10:40:25;95448.00;;;14.60
33267;BMP180;19638;49.080;11.896;2023-03-13T10:44:31;95436.00;;;15.00
33267;BMP180;19638;49.080;11.896;2023-03-13T10:48:35;95450.00;;;15.40
33267;BMP180;19638;49.080;11.896;2023-03-13T10:52:41;95448.00;;;15.50
33267;BMP180;19638;49.080;11.896;2023-03-13T10:56:50;95434.00;;;15.60
33267;BMP180;19638;49.080;11.896;2023-03-13T11:01:13;95433.00;;;15.80
33267;BMP180;19638;49.080;11.896;2023-03-13T11:05:31;95445.00;;;15.90
33267;BMP180;19638;49.080;11.896;2023-03-13T11:09:34;95435.00;;;16.00
33267;BMP180;19638;49.080;11.896;2023-03-13T11:13:41;95439.00;;;16.20
33267;BMP180;19638;49.080;11.896;2023-03-13T11:17:49;95435.00;;;16.20
33267;BMP180;19638;49.080;11.896;2023-03-13T11:22:06;95433.00;;;16.30
33267;BMP180;19638;49.080;11.896;2023-03-13T11:26:18;95434.00;;;16.30
33267;BMP180;19638;49.080;11.896;2023-03-13T11:30:47;95428.00;;;16.40
33267;BMP180;19638;49.080;11.896;2023-03-13T11:34:55;95421.00;;;16.50
33267;BMP180;19638;49.080;11.896;2023-03-13T11:39:23;95410.00;;;16.50
33267;BMP180;19638;49.080;11.896;2023-03-13T11:43:44;95406.00;;;16.50
33267;BMP180;19638;49.080;11.896;2023-03-13T11:47:57;95416.00;;;16.30
33267;BMP180;19638;49.080;11.896;2023-03-13T11:52:17;95403.00;;;16.20
33267;BMP180;19638;49.080;11.896;2023-03-13T11:56:28;95417.00;;;16.10
33267;BMP180;19638;49.080;11.896;2023-03-13T12:00:36;95421.00;;;16.10
33267;BMP180;19638;49.080;11.896;2023-03-13T12:04:45;95414.00;;;16.20
33267;BMP180;19638;49.080;11.896;2023-03-13T12:08:52;95401.00;;;16.40
33267;BMP180;19638;49.080;11.896;2023-03-13T12:13:01;95402.00;;;16.60
33267;BMP180;19638;49.080;11.896;2023-03-13T12:17:12;95392.00;;;16.90
33267;BMP180;19638;49.080;11.896;2023-03-13T12:21:27;95390.00;;;17.20
33267;BMP180;19638;49.080;11.896;2023-03-13T12:25:35;95365.00;;;17.40
33267;BMP180;19638;49.080;11.896;2023-03-13T12:29:47;95361.00;;;17.50
33267;BMP180;19638;49.080;11.896;2023-03-13T12:33:55;95350.00;;;17.60
33267;BMP180;19638;49.080;11.896;2023-03-13T12:38:09;95350.00;;;17.60
33267;BMP180;19638;49.080;11.896;2023-03-13T12:42:25;95358.00;;;17.70
33267;BMP180;19638;49.080;11.896;2023-03-13T12:46:39;95361.00;;;17.90
33267;BMP180;19638;49.080;11.896;2023-03-13T12:50:54;95351.00;;;17.80
33267;BMP180;19638;49.080;11.896;2023-03-13T12:55:28;95343.00;;;17.80
33267;BMP180;19638;49.080;11.896;2023-03-13T12:59:38;95346.00;;;17.90
33267;BMP180;19638;49.080;11.896;2023-03-13T13:03:49;95337.00;;;17.80
33267;BMP180;19638;49.080;11.896;2023-03-13T13:07:54;95320.00;;;18.00
33267;BMP180;19638;49.080;11.896;2023-03-13T13:12:01;95319.00;;;18.30
33267;BMP180;19638;49.080;11.896;2023-03-13T13:16:14;95307.00;;;18.50
33267;BMP180;19638;49.080;11.896;2023-03-13T13:20:37;95289.00;;;18.60
33267;BMP180;19638;49.080;11.896;2023-03-13T13:24:48;95274.00;;;18.70
33267;BMP180;19638;49.080;11.896;2023-03-13T13:28:53;95271.00;;;19.10
33267;BMP180;19638;49.080;11.896;2023-03-13T13:33:33;95266.00;;;19.30
33267;BMP180;19638;49.080;11.896;2023-03-13T13:37:38;95244.00;;;19.30
33267;BMP180;19638;49.080;11.896;2023-03-13T13:41:45;95237.00;;;19.20
33267;BMP180;19638;49.080;11.896;2023-03-13T13:45:59;95229.00;;;19.20
33267;BMP180;19638;49.080;11.896;2023-03-13T13:50:16;95229.00;;;19.30
33267;BMP180;19638;49.080;11.896;2023-03-13T13:54:32;95221.00;;;19.50
33267;BMP180;19638;49.080;11.896;2023-03-13T13:58:43;95209.00;;;19.50
33267;BMP180;19638;49.080;11.896;2023-03-13T14:02:50;95209.00;;;19.40
33267;BMP180;19638;49.080;11.896;2023-03-13T14:07:01;95197.00;;;19.50
33267;BMP180;19638;49.080;11.896;2023-03-13T14:11:08;95198.00;;;19.40
33267;BMP180;19638;49.080;11.896;2023-03-13T14:15:18;95193.00;;;19.30
33267;BMP180;19638;49.080;11.896;2023-03-13T14:19:28;95176.00;;;19.20
33267;BMP180;19638;49.080;11.896;2023-03-13T14:23:36;95176.00;;;19.20
33267;BMP180;19638;49.080;11.896;2023-03-13T14:27:44;95162.00;;;19.30
33267;BMP180;19638;49.080;11.896;2023-03-13T14:31:50;95152.00;;;19.50
33267;BMP180;19638;49.080;11.896;2023-03-13T14:35:59;95147.00;;;19.50
33267;BMP180;19638;49.080;11.896;2023-03-13T14:40:07;95129.00;;;19.40
33267;BMP180;19638;49.080;11.896;2023-03-13T14:44:22;95129.00;;;19.40
33267;BMP180;19638;49.080;11.896;2023-03-13T14:48:30;95116.00;;;19.60
33267;BMP180;19638;49.080;11.896;2023-03-13T14:52:35;95101.00;;;19.80
33267;BMP180;19638;49.080;11.896;2023-03-13T14:56:40;95093.00;;;19.90
33267;BMP180;19638;49.080;11.896;2023-03-13T15:00:45;95076.00;;;19.90
33267;BMP180;19638;49.080;11.896;2023-03-13T15:04:57;95072.00;;;19.80
33267;BMP180;19638;49.080;11.896;2023-03-13T15:09:18;95078.00;;;19.80
33267;BMP180;19638;49.080;11.896;2023-03-13T15:13:23;95067.00;;;19.80
33267;BMP180;19638;49.080;11.896;2023-03-13T15:17:27;95063.00;;;19.90
33267;BMP180;19638;49.080;11.896;2023-03-13T15:21:31;95046.00;;;19.90
33267;BMP180;19638;49.080;11.896;2023-03-13T15:25:37;95038.00;;;19.80
33267;BMP180;19638;49.080;11.896;2023-03-13T15:29:41;95027.00;;;19.60
33267;BMP180;19638;49.080;11.896;2023-03-13T15:33:45;95009.00;;;19.40
33267;BMP180;19638;49.080;11.896;2023-03-13T15:37:49;94996.00;;;19.20
33267;BMP180;19638;49.080;11.896;2023-03-13T15:41:57;94994.00;;;19.20
33267;BMP180;19638;49.080;11.896;2023-03-13T15:46:03;94983.00;;;19.20
33267;BMP180;19638;49.080;11.896;2023-03-13T15:50:13;94983.00;;;19.30
33267;BMP180;19638;49.080;11.896;2023-03-13T15:54:16;94981.00;;;19.30
33267;BMP180;19638;49.080;11.896;2023-03-13T15:58:21;94977.00;;;19.20
33267;BMP180;19638;49.080;11.896;2023-03-13T16:02:26;94966.00;;;19.20
33267;BMP180;19638;49.080;11.896;2023-03-13T16:06:32;94955.00;;;18.90
33267;BMP180;19638;49.080;11.896;2023-03-13T16:10:35;94956.00;;;18.70
33267;BMP180;19638;49.080;11.896;2023-03-13T16:14:40;94937.00;;;18.40
33267;BMP180;19638;49.080;11.896;2023-03-13T16:18:43;94919.00;;;18.00
33267;BMP180;19638;49.080;11.896;2023-03-13T16:22:46;94907.00;;;17.60
33267;BMP180;19638;49.080;11.896;2023-03-13T16:26:54;94909.00;;;17.20
33267;BMP180;19638;49.080;11.896;2023-03-13T16:31:01;94898.00;;;16.90
33267;BMP180;19638;49.080;11.896;2023-03-13T16:35:07;94891.00;;;16.60
33267;BMP180;19638;49.080;11.896;2023-03-13T16:39:14;94887.00;;;16.30
33267;BMP180;19638;49.080;11.896;2023-03-13T16:43:18;94874.00;;;16.10
33267;BMP180;19638;49.080;11.896;2023-03-13T16:47:26;94876.00;;;15.90
33267;BMP180;19638;49.080;11.896;2023-03-13T16:51:30;94872.00;;;15.70
33267;BMP180;19638;49.080;11.896;2023-03-13T16:55:33;94872.00;;;15.50
33267;BMP180;19638;49.080;11.896;2023-03-13T16:59:38;94867.00;;;15.30
33267;BMP180;19638;49.080;11.896;2023-03-13T17:03:48;94856.00;;;15.10
33267;BMP180;19638;49.080;11.896;2023-03-13T17:07:51;94856.00;;;14.90
33267;BMP180;19638;49.080;11.896;2023-03-13T17:11:57;94853.00;;;14.70
33267;BMP180;19638;49.080;11.896;2023-03-13T17:16:00;94841.00;;;14.50
33267;BMP180;19638;49.080;11.896;2023-03-13T17:20:06;94839.00;;;14.30
33267;BMP180;19638;49.080;11.896;2023-03-13T17:24:10;94826.00;;;14.10
33267;BMP180;19638;49.080;11.896;2023-03-13T17:28:13;94832.00;;;14.00
33267;BMP180;19638;49.080;11.896;2023-03-13T17:32:17;94826.00;;;13.80
33267;BMP180;19638;49.080;11.896;2023-03-13T17:36:25;94808.00;;;13.70
33267;BMP180;19638;49.080;11.896;2023-03-13T17:40:29;94786.00;;;13.60
33267;BMP180;19638;49.080;11.896;2023-03-13T17:44:33;94791.00;;;13.40
33267;BMP180;19638;49.080;11.896;2023-03-13T17:48:39;94777.00;;;13.30
33267;BMP180;19638;49.080;11.896;2023-03-13T17:52:46;94781.00;;;13.20
33267;BMP180;19638;49.080;11.896;2023-03-13T17:56:49;94761.00;;;13.10
33267;BMP180;19638;49.080;11.896;2023-03-13T18:00:54;94756.00;;;13.00
33267;BMP180;19638;49.080;11.896;2023-03-13T18:04:58;94754.00;;;12.90
33267;BMP180;19638;49.080;11.896;2023-03-13T18:09:13;94751.00;;;12.90
33267;BMP180;19638;49.080;11.896;2023-03-13T18:13:17;94755.00;;;12.80
33267;BMP180;19638;49.080;11.896;2023-03-13T18:17:24;94756.00;;;12.70
33267;BMP180;19638;49.080;11.896;2023-03-13T18:21:30;94750.00;;;12.70
33267;BMP180;19638;49.080;11.896;2023-03-13T18:25:37;94742.00;;;12.60
33267;BMP180;19638;49.080;11.896;2023-03-13T18:29:47;94726.00;;;12.60
33267;BMP180;19638;49.080;11.896;2023-03-13T18:33:54;94733.00;;;12.50
33267;BMP180;19638;49.080;11.896;2023-03-13T18:37:57;94715.00;;;12.50
33267;BMP180;19638;49.080;11.896;2023-03-13T18:42:05;94705.00;;;12.40
33267;BMP180;19638;49.080;11.896;2023-03-13T18:46:13;94696.00;;;12.40
33267;BMP180;19638;49.080;11.896;2023-03-13T18:50:22;94680.00;;;12.30
33267;BMP180;19638;49.080;11.896;2023-03-13T18:54:27;94667.00;;;12.20
33267;BMP180;19638;49.080;11.896;2023-03-13T18:58:36;94658.00;;;12.20
33267;BMP180;19638;49.080;11.896;2023-03-13T19:02:40;94646.00;;;12.20
33267;BMP180;19638;49.080;11.896;2023-03-13T19:06:44;94639.00;;;12.20
33267;BMP180;19638;49.080;11.896;2023-03-13T19:10:51;94635.00;;;12.10
33267;BMP180;19638;49.080;11.896;2023-03-13T19:14:55;94637.00;;;12.10
33267;BMP180;19638;49.080;11.896;2023-03-13T19:18:59;94633.00;;;12.00
33267;BMP180;19638;49.080;11.896;2023-03-13T19:23:02;94632.00;;;12.00
33267;BMP180;19638;49.080;11.896;2023-03-13T19:27:05;94620.00;;;11.90
33267;BMP180;19638;49.080;11.896;2023-03-13T19:31:10;94605.00;;;11.80
33267;BMP180;19638;49.080;11.896;2023-03-13T19:35:21;94597.00;;;11.80
33267;BMP180;19638;49.080;11.896;2023-03-13T19:39:24;94599.00;;;11.70
33267;BMP180;19638;49.080;11.896;2023-03-13T19:43:32;94586.00;;;11.70
33267;BMP180;19638;49.080;11.896;2023-03-13T19:47:37;94587.00;;;11.60
33267;BMP180;19638;49.080;11.896;2023-03-13T19:51:40;94598.00;;;11.60
33267;BMP180;19638;49.080;11.896;2023-03-13T19:55:44;94605.00;;;11.60
33267;BMP180;19638;49.080;11.896;2023-03-13T19:59:47;94607.00;;;11.50
33267;BMP180;19638;49.080;11.896;2023-03-13T20:03:54;94601.00;;;11.50
33267;BMP180;19638;49.080;11.896;2023-03-13T20:07:59;94588.00;;;11.40
33267;BMP180;19638;49.080;11.896;2023-03-13T20:12:05;94576.00;;;11.30
33267;BMP180;19638;49.080;11.896;2023-03-13T20:16:12;94559.00;;;11.20
33267;BMP180;19638;49.080;11.896;2023-03-13T20:20:17;94563.00;;;11.20
33267;BMP180;19638;49.080;11.896;2023-03-13T20:24:20;94543.00;;;11.10
33267;BMP180;19638;49.080;11.896;2023-03-13T20:28:23;94537.00;;;11.10
33267;BMP180;19638;49.080;11.896;2023-03-13T20:32:29;94559.00;;;11.10
33267;BMP180;19638;49.080;11.896;2023-03-13T20:36:34;94551.00;;;11.20
33267;BMP180;19638;49.080;11.896;2023-03-13T20:40:37;94553.00;;;11.20
33267;BMP180;19638;49.080;11.896;2023-03-13T20:44:40;94558.00;;;11.20
33267;BMP180;19638;49.080;11.896;2023-03-13T20:49:00;94563.00;;;11.20
33267;BMP180;19638;49.080;11.896;2023-03-13T20:53:19;94578.00;;;11.30
33267;BMP180;19638;49.080;11.896;2023-03-13T20:57:27;94601.00;;;11.40
33267;BMP180;19638;49.080;11.896;2023-03-13T21:01:30;94621.00;;;11.40
33267;BMP180;19638;49.080;11.896;2023-03-13T21:05:37;94620.00;;;11.40
33267;BMP180;19638;49.080;11.896;2023-03-13T21:09:42;94759.00;;;11.30
33267;BMP180;19638;49.080;11.896;2023-03-13T21:13:46;94714.00;;;11.30
33267;BMP180;19638;49.080;11.896;2023-03-13T21:17:49;94712.00;;;11.70
33267;BMP180;19638;49.080;11.896;2023-03-13T21:21:54;94679.00;;;12.10
33267;BMP180;19638;49.080;11.896;2023-03-13T21:26:00;94683.00;;;12.30
33267;BMP180;19638;49.080;11.896;2023-03-13T21:30:06;94685.00;;;12.50
33267;BMP180;19638;49.080;11.896;2023-03-13T21:34:12;94663.00;;;12.60
33267;BMP180;19638;49.080;11.896;2023-03-13T21:38:16;94668.00;;;12.60
33267;BMP180;19638;49.080;11.896;2023-03-13T21:42:22;94664.00;;;12.60
33267;BMP180;19638;49.080;11.896;2023-03-13T21:46:26;94662.00;;;12.60
33267;BMP180;19638;49.080;11.896;2023-03-13T21:50:33;94672.00;;;12.50
33267;BMP180;19638;49.080;11.896;2023-03-13T21:54:42;94720.00;;;12.40
33267;BMP180;19638;49.080;11.896;2023-03-13T21:58:46;94740.00;;;12.30
33267;BMP180;19638;49.080;11.896;2023-03-13T22:02:52;94815.00;;;12.20
33267;BMP180;19638;49.080;11.896;2023-03-13T22:06:55;94863.00;;;12.40
33267;BMP180;19638;49.080;11.896;2023-03-13T22:11:02;94881.00;;;12.20
33267;BMP180;19638;49.080;11.896;2023-03-13T22:15:09;94893.00;;;11.80
33267;BMP180;19638;49.080;11.896;2023-03-13T22:19:19;94903.00;;;11.60
33267;BMP180;19638;49.080;11.896;2023-03-13T22:23:25;94884.00;;;11.60
33267;BMP180;19638;49.080;11.896;2023-03-13T22:27:30;94864.00;;;11.60
33267;BMP180;19638;49.080;11.896;2023-03-13T22:31:37;94849.00;;;11.60
33267;BMP180;19638;49.080;11.896;2023-03-13T22:35:42;94841.00;;;11.60
33267;BMP180;19638;49.080;11.896;2023-03-13T22:39:48;94831.00;;;11.60
33267;BMP180;19638;49.080;11.896;2023-03-13T22:44:02;94824.00;;;11.60
33267;BMP180;19638;49.080;11.896;2023-03-13T22:48:06;94820.00;;;11.60
33267;BMP180;19638;49.080;11.896;2023-03-13T22:52:10;94829.00;;;11.70
33267;BMP180;19638;49.080;11.896;2023-03-13T22:56:13;94828.00;;;11.60
33267;BMP180;19638;49.080;11.896;2023-03-13T23:00:17;94821.00;;;11.60
33267;BMP180;19638;49.080;11.896;2023-03-13T23:04:23;94810.00;;;11.60
33267;BMP180;19638;49.080;11.896;2023-03-13T23:08:28;94789.00;;;11.40
33267;BMP180;19638;49.080;11.896;2023-03-13T23:12:33;94787.00;;;11.30
33267;BMP180;19638;49.080;11.896;2023-03-13T23:16:36;94755.00;;;11.20
33267;BMP180;19638;49.080;11.896;2023-03-13T23:20:41;94744.00;;;11.10
33267;BMP180;19638;49.080;11.896;2023-03-13T23:24:46;94727.00;;;11.10
33267;BMP180;19638;49.080;11.896;2023-03-13T23:28:51;94694.00;;;10.90
33267;BMP180;19638;49.080;11.896;2023-03-13T23:32:57;94666.00;;;10.80
33267;BMP180;19638;49.080;11.896;2023-03-13T23:37:04;94658.00;;;10.80